Milford, NJ

3:40 AM EDT on August 29, 2015 (GMT -0400)
Alexandria | | Change Station
CLOSE
Current Station
Personal Weather Station
Location: Milford, NJ
Elevation: 781 ft
Nearby Weather Stations

Elev 781 ft 40.62 °N, 75.07 °W | Updated 4 seconds ago

Clear
Clear
60.3 °F
Feels Like 60.3 °F
N
0.0
Wind Variable Wind from NNW

Today
High -- | Low -- °F
--% Chance of Precip.
Yesterday
High -- | Low -- °F
Precip. -- in
6:24 AM 7:37 PM
Full, 100% visible
Pressure 30.19 in
Visibility 10.0 miles
Clouds Clear
Dew Point 55 °F
Humidity 83%
Rainfall 0.00 in
Snow Depth Not available.
UV 0 out of 12
Pollen 9.10 out of 12
Air Quality Not available.
Flu Activity Not available.
METAR KDYL 290654Z AUTO 00000KT 10SM CLR 13/13 A3020 RMK AO2 SLP223 T01330128
Pressure 30.19 in
Visibility 10.0 miles
Clouds Clear
Dew Point 55 °F
Humidity 83%
Rainfall 0.00 in
Snow Depth Not available.
UV 0 out of 12
Pollen 9.10 out of 12
Air Quality Not available.
Flu Activity Not available.
METAR KDYL 290654Z AUTO 00000KT 10SM CLR 13/13 A3020 RMK AO2 SLP223 T01330128

10-Day Weather Forecast

×

Almanac

Astronomy

Aug. 29, 2015 Rise Set
Actual Time
Civil Twilight
Nautical Twilight
Astronomical Twilight
Moon
Length of Visible Light
Length of Day
Tomorrow will be .
, % of the Moon is Illuminated

Today's Extremes

State Highs State Lows

Community

WunderPhotos

Upload Photos

1,850,634 photos uploaded!

WunderBlogs® & News

Nearby

Air Quality

  Air Quality AQ Index Pollutant
Not available.

Snow Depth

Station Depth Elevation

Earthquake Activity

City Distance Mag. Time & Date
Minimum magnitude displayed is 2.5.

Coastal Water Temperatures

Place Temperature

Stations

Nearby Weather Stations

Station Location Temp. Windchill Dew Point Humidity Wind Precip. Elev Updated Type